createdAt,value
2022-12-04T00:05:32.133Z,2.93
2022-12-04T00:09:10.175Z,2.94
2022-12-04T00:12:53.112Z,2.91
2022-12-04T00:16:20.073Z,2.89
2022-12-04T00:20:11.560Z,2.83
2022-12-04T00:23:51.826Z,2.79
2022-12-04T00:27:40.493Z,2.64
2022-12-04T00:31:21.528Z,2.69
2022-12-04T00:35:01.257Z,2.65
2022-12-04T00:38:38.184Z,2.58
2022-12-04T00:46:05.760Z,2.50
2022-12-04T00:49:50.312Z,2.42
2022-12-04T00:57:21.134Z,2.51
2022-12-04T01:01:06.420Z,2.58
2022-12-04T01:09:05.988Z,2.64
2022-12-04T01:12:34.372Z,2.66
2022-12-04T01:16:24.244Z,2.82
2022-12-04T01:19:59.440Z,2.79
2022-12-04T01:23:36.165Z,2.86
2022-12-04T01:27:11.285Z,2.86
2022-12-04T01:30:48.750Z,3.06
2022-12-04T01:34:31.143Z,3.00
2022-12-04T01:38:15.002Z,2.95
2022-12-04T01:41:33.322Z,2.88
2022-12-04T01:45:48.028Z,2.86
2022-12-04T01:49:52.261Z,2.78
2022-12-04T01:53:36.275Z,2.64
2022-12-04T01:57:26.088Z,2.62
2022-12-04T02:01:11.868Z,2.37
2022-12-04T02:04:49.468Z,2.41
2022-12-04T02:08:29.298Z,2.29
2022-12-04T02:12:35.127Z,2.19
2022-12-04T02:16:56.215Z,2.31
2022-12-04T02:32:15.501Z,2.26
2022-12-04T02:36:15.549Z,2.10
2022-12-04T02:40:15.963Z,2.16
2022-12-04T02:47:57.032Z,2.18
2022-12-04T02:51:35.902Z,2.14
2022-12-04T02:55:29.032Z,2.03
2022-12-04T02:59:26.857Z,2.03
2022-12-04T03:03:21.399Z,1.91
2022-12-04T03:14:36.362Z,1.74
2022-12-04T03:18:22.390Z,1.81
2022-12-04T03:22:09.646Z,1.73
2022-12-04T03:29:45.721Z,1.59
2022-12-04T03:33:47.935Z,1.63
2022-12-04T03:37:44.998Z,1.43
2022-12-04T03:42:34.273Z,1.40
2022-12-04T03:46:53.531Z,1.48
2022-12-04T03:50:33.886Z,1.55
2022-12-04T03:54:30.425Z,1.48
2022-12-04T04:09:31.219Z,1.48
2022-12-04T04:17:51.643Z,1.56
2022-12-04T04:26:10.131Z,1.47
2022-12-04T04:29:54.954Z,1.46
2022-12-04T04:34:00.156Z,1.37
2022-12-04T04:41:53.935Z,1.45
2022-12-04T04:45:58.313Z,1.51
2022-12-04T04:49:28.101Z,1.51
2022-12-04T04:53:30.156Z,1.55
2022-12-04T04:57:07.999Z,1.50
2022-12-04T05:01:02.819Z,1.53
2022-12-04T05:04:44.887Z,1.54
2022-12-04T05:08:27.430Z,1.55
2022-12-04T05:12:05.833Z,1.54
2022-12-04T05:15:44.092Z,1.48
2022-12-04T05:19:45.042Z,1.46
2022-12-04T05:23:21.277Z,1.36
2022-12-04T05:27:01.845Z,1.36
2022-12-04T05:30:40.648Z,1.31
2022-12-04T05:37:57.155Z,1.29
2022-12-04T05:41:44.957Z,1.20
2022-12-04T05:45:24.915Z,1.20
2022-12-04T05:53:09.862Z,1.13
2022-12-04T05:56:45.611Z,1.02
2022-12-04T06:00:28.689Z,1.09
2022-12-04T06:04:04.295Z,1.11
2022-12-04T06:07:48.249Z,1.12
2022-12-04T06:11:43.759Z,1.22
2022-12-04T06:19:51.672Z,1.19
2022-12-04T06:38:54.480Z,1.31
2022-12-04T06:42:36.766Z,1.31
2022-12-04T06:51:06.243Z,1.34
2022-12-04T06:58:31.591Z,1.44
2022-12-04T07:02:20.252Z,1.56
2022-12-04T07:09:46.081Z,1.71
2022-12-04T07:13:23.363Z,1.73
2022-12-04T07:29:11.591Z,1.89
2022-12-04T07:32:48.635Z,1.88
2022-12-04T07:36:20.116Z,1.89
2022-12-04T07:39:56.641Z,1.98
2022-12-04T07:43:37.007Z,2.05
2022-12-04T07:47:31.429Z,2.09
2022-12-04T07:51:15.399Z,2.16
2022-12-04T08:07:06.258Z,2.41
2022-12-04T08:10:44.272Z,2.35
2022-12-04T08:18:06.872Z,2.53
2022-12-04T08:21:56.017Z,2.67
2022-12-04T08:29:10.936Z,2.84
2022-12-04T08:32:53.899Z,2.95
2022-12-04T08:44:30.646Z,3.45
2022-12-04T08:51:53.862Z,3.70
2022-12-04T08:55:55.616Z,3.82
2022-12-04T09:04:28.056Z,4.08
2022-12-04T09:28:06.002Z,4.89
2022-12-04T09:32:26.203Z,5.08
2022-12-04T09:36:32.950Z,5.34
2022-12-04T09:44:48.737Z,5.36
2022-12-04T09:52:35.044Z,5.80
2022-12-04T09:59:48.267Z,5.67
2022-12-04T10:07:30.193Z,5.93
2022-12-04T10:11:13.816Z,6.03
2022-12-04T10:15:03.166Z,6.11
2022-12-04T10:18:38.820Z,6.21
2022-12-04T10:22:40.919Z,6.36
2022-12-04T10:26:22.011Z,6.40
2022-12-04T10:30:21.344Z,6.55
2022-12-04T10:34:11.575Z,6.49
2022-12-04T10:37:59.403Z,6.51
2022-12-04T10:41:50.651Z,6.70
2022-12-04T10:45:13.024Z,6.56
2022-12-04T10:49:28.155Z,6.61
2022-12-04T10:53:01.934Z,6.66
2022-12-04T11:10:01.903Z,6.91
2022-12-04T11:13:30.908Z,7.03
2022-12-04T11:46:31.899Z,7.87
2022-12-04T11:51:01.949Z,7.90
2022-12-04T12:10:53.170Z,7.68
2022-12-04T12:30:20.183Z,7.78
2022-12-04T12:53:43.224Z,7.86
2022-12-04T13:01:36.303Z,7.77
2022-12-04T13:05:33.488Z,7.95
2022-12-04T13:17:30.945Z,7.76
2022-12-04T13:21:40.394Z,7.59
2022-12-04T13:29:17.943Z,7.64
2022-12-04T13:33:14.186Z,7.57
2022-12-04T13:41:00.956Z,7.56
2022-12-04T13:46:11.169Z,7.43
2022-12-04T14:28:27.425Z,7.04
2022-12-04T15:03:09.246Z,6.76
2022-12-04T15:06:58.353Z,6.68
2022-12-04T15:10:56.089Z,6.59
2022-12-04T15:37:31.866Z,6.26
2022-12-04T15:45:13.433Z,6.22
2022-12-04T15:56:28.623Z,6.40
2022-12-04T16:07:40.280Z,6.19
2022-12-04T16:12:01.824Z,6.18
2022-12-04T16:19:51.990Z,5.94
2022-12-04T16:31:06.974Z,6.06
2022-12-04T16:38:35.262Z,6.00
2022-12-04T16:46:06.122Z,5.91
2022-12-04T16:49:27.867Z,5.99
2022-12-04T16:53:04.331Z,5.88
2022-12-04T16:56:40.867Z,5.95
2022-12-04T17:00:17.122Z,5.94
2022-12-04T17:03:51.942Z,5.90
2022-12-04T17:07:28.508Z,5.76
2022-12-04T17:11:16.369Z,5.86
2022-12-04T17:14:58.610Z,5.80
2022-12-04T17:18:45.415Z,5.79
2022-12-04T17:22:34.276Z,5.69
2022-12-04T17:27:19.205Z,5.68
2022-12-04T17:30:52.347Z,5.67
2022-12-04T17:38:30.705Z,5.62
2022-12-04T17:42:28.192Z,5.68
2022-12-04T17:49:24.283Z,5.64
2022-12-04T17:52:55.745Z,5.65
2022-12-04T17:56:47.660Z,5.73
2022-12-04T18:04:13.986Z,5.62
2022-12-04T18:22:27.719Z,5.49
2022-12-04T18:26:15.393Z,5.49
2022-12-04T18:30:40.108Z,5.52
2022-12-04T18:34:49.404Z,5.58
2022-12-04T18:46:27.394Z,5.48
2022-12-04T18:50:10.738Z,5.35
2022-12-04T18:54:03.020Z,5.43
2022-12-04T18:58:05.350Z,5.44
2022-12-04T19:05:45.727Z,5.38
2022-12-04T19:10:02.614Z,5.43
2022-12-04T19:13:10.859Z,5.43
2022-12-04T19:25:04.658Z,5.36
2022-12-04T19:28:56.998Z,5.37
2022-12-04T19:36:29.463Z,5.38
2022-12-04T19:44:47.322Z,5.43
2022-12-04T19:51:41.256Z,5.45
2022-12-04T19:55:21.522Z,5.37
2022-12-04T19:59:10.123Z,5.34
2022-12-04T20:06:30.486Z,5.40
2022-12-04T20:10:13.626Z,5.45
2022-12-04T20:13:56.724Z,5.44
2022-12-04T20:17:39.423Z,5.43
2022-12-04T20:21:20.261Z,5.33
2022-12-04T20:25:12.633Z,5.25
2022-12-04T20:28:50.296Z,5.30
2022-12-04T20:32:27.487Z,5.22
2022-12-04T20:36:09.667Z,5.32
2022-12-04T20:39:48.498Z,5.31
2022-12-04T20:43:16.185Z,5.26
2022-12-04T20:47:08.979Z,5.16
2022-12-04T20:50:46.618Z,5.15
2022-12-04T20:54:25.516Z,5.21
2022-12-04T21:01:50.265Z,5.28
2022-12-04T21:05:26.258Z,5.19
2022-12-04T21:09:16.013Z,5.30
2022-12-04T21:13:25.397Z,5.32
2022-12-04T21:17:01.741Z,5.24
2022-12-04T21:20:41.266Z,5.19
2022-12-04T21:24:28.023Z,5.23
2022-12-04T21:28:03.687Z,5.28
2022-12-04T21:31:55.134Z,5.33
2022-12-04T21:35:35.247Z,5.23
2022-12-04T21:39:11.990Z,5.30
2022-12-04T21:42:54.569Z,5.15
2022-12-04T21:46:31.400Z,5.19
2022-12-04T21:49:40.211Z,5.11
2022-12-04T21:52:57.427Z,5.13
2022-12-04T21:56:22.364Z,5.15
2022-12-04T21:59:57.326Z,5.13
2022-12-04T22:03:35.444Z,5.17
2022-12-04T22:10:46.191Z,5.06
2022-12-04T22:21:45.196Z,5.03
2022-12-04T22:25:26.125Z,5.02
2022-12-04T22:29:48.059Z,5.06
2022-12-04T22:36:41.587Z,5.03
2022-12-04T22:40:18.423Z,4.97
2022-12-04T22:47:44.663Z,4.94
2022-12-04T22:51:19.308Z,4.93
2022-12-04T22:55:03.578Z,4.92
2022-12-04T22:58:42.003Z,4.91
2022-12-04T23:02:05.714Z,4.80
2022-12-04T23:05:42.279Z,4.82
2022-12-04T23:09:17.811Z,4.86
2022-12-04T23:12:44.600Z,4.80
2022-12-04T23:16:20.825Z,4.85
2022-12-04T23:19:49.067Z,4.73
2022-12-04T23:31:12.713Z,4.77
2022-12-04T23:34:49.666Z,4.76
2022-12-04T23:38:50.137Z,4.82
2022-12-04T23:45:57.431Z,4.71
